sensor_id;sensor_type;location;lat;lon;timestamp;temperature;humidity
58951;DHT22;44730;53.158;6.398;2022-12-07T00:00:00;3.40;99.90
58951;DHT22;44730;53.158;6.398;2022-12-07T00:02:26;3.70;99.90
58951;DHT22;44730;53.158;6.398;2022-12-07T00:04:52;3.90;99.90
58951;DHT22;44730;53.158;6.398;2022-12-07T00:07:18;2.60;99.90
58951;DHT22;44730;53.158;6.398;2022-12-07T00:09:43;3.50;99.90
58951;DHT22;44730;53.158;6.398;2022-12-07T00:12:09;3.90;99.90
58951;DHT22;44730;53.158;6.398;2022-12-07T00:14:35;4.20;99.90
58951;DHT22;44730;53.158;6.398;2022-12-07T00:17:00;3.50;99.90
58951;DHT22;44730;53.158;6.398;2022-12-07T00:19:26;4.10;99.90
58951;DHT22;44730;53.158;6.398;2022-12-07T00:21:52;3.20;99.90
58951;DHT22;44730;53.158;6.398;2022-12-07T00:24:17;2.90;99.90
58951;DHT22;44730;53.158;6.398;2022-12-07T00:26:43;2.90;99.90
58951;DHT22;44730;53.158;6.398;2022-12-07T00:29:19;2.90;99.90
58951;DHT22;44730;53.158;6.398;2022-12-07T00:31:45;3.00;99.90
58951;DHT22;44730;53.158;6.398;2022-12-07T00:34:14;4.40;99.90
58951;DHT22;44730;53.158;6.398;2022-12-07T00:36:40;3.20;99.90
58951;DHT22;44730;53.158;6.398;2022-12-07T00:39:06;4.60;99.90
58951;DHT22;44730;53.158;6.398;2022-12-07T00:41:31;3.40;99.90
58951;DHT22;44730;53.158;6.398;2022-12-07T00:43:57;4.70;99.90
58951;DHT22;44730;53.158;6.398;2022-12-07T00:46:24;3.40;99.90
58951;DHT22;44730;53.158;6.398;2022-12-07T00:48:50;4.40;99.90
58951;DHT22;44730;53.158;6.398;2022-12-07T00:51:19;3.50;99.90
58951;DHT22;44730;53.158;6.398;2022-12-07T00:53:45;3.20;99.90
58951;DHT22;44730;53.158;6.398;2022-12-07T00:56:17;3.10;99.90
58951;DHT22;44730;53.158;6.398;2022-12-07T00:58:43;3.20;99.90
58951;DHT22;44730;53.158;6.398;2022-12-07T01:01:10;3.20;99.90
58951;DHT22;44730;53.158;6.398;2022-12-07T01:03:37;4.90;99.90
58951;DHT22;44730;53.158;6.398;2022-12-07T01:06:03;3.60;99.90
58951;DHT22;44730;53.158;6.398;2022-12-07T01:08:29;3.40;99.90
58951;DHT22;44730;53.158;6.398;2022-12-07T01:11:07;4.70;99.90
58951;DHT22;44730;53.158;6.398;2022-12-07T01:13:34;3.40;99.90
58951;DHT22;44730;53.158;6.398;2022-12-07T01:16:02;4.90;99.90
58951;DHT22;44730;53.158;6.398;2022-12-07T01:18:29;3.70;99.90
58951;DHT22;44730;53.158;6.398;2022-12-07T01:21:04;3.30;99.90
58951;DHT22;44730;53.158;6.398;2022-12-07T01:23:30;3.30;99.90
58951;DHT22;44730;53.158;6.398;2022-12-07T01:25:57;3.30;99.90
58951;DHT22;44730;53.158;6.398;2022-12-07T01:28:23;4.70;99.90
58951;DHT22;44730;53.158;6.398;2022-12-07T01:33:32;3.40;99.90
58951;DHT22;44730;53.158;6.398;2022-12-07T01:36:06;4.60;99.90
58951;DHT22;44730;53.158;6.398;2022-12-07T01:38:32;3.50;99.90
58951;DHT22;44730;53.158;6.398;2022-12-07T01:41:00;4.20;99.90
58951;DHT22;44730;53.158;6.398;2022-12-07T01:43:28;4.30;99.90
58951;DHT22;44730;53.158;6.398;2022-12-07T01:45:54;4.80;99.90
58951;DHT22;44730;53.158;6.398;2022-12-07T01:48:30;3.70;99.90
58951;DHT22;44730;53.158;6.398;2022-12-07T01:51:02;3.40;99.90
58951;DHT22;44730;53.158;6.398;2022-12-07T01:53:30;4.00;99.90
58951;DHT22;44730;53.158;6.398;2022-12-07T01:55:58;3.30;99.90
58951;DHT22;44730;53.158;6.398;2022-12-07T01:58:25;3.30;99.90
58951;DHT22;44730;53.158;6.398;2022-12-07T02:00:51;4.50;99.90
58951;DHT22;44730;53.158;6.398;2022-12-07T02:03:24;3.70;99.90
58951;DHT22;44730;53.158;6.398;2022-12-07T02:05:53;3.20;99.90
58951;DHT22;44730;53.158;6.398;2022-12-07T02:08:20;3.50;99.90
58951;DHT22;44730;53.158;6.398;2022-12-07T02:10:46;4.00;99.90
58951;DHT22;44730;53.158;6.398;2022-12-07T02:13:26;3.60;99.90
58951;DHT22;44730;53.158;6.398;2022-12-07T02:21:54;3.30;99.90
58951;DHT22;44730;53.158;6.398;2022-12-07T02:24:57;3.40;99.90
58951;DHT22;44730;53.158;6.398;2022-12-07T02:27:52;3.50;99.90
58951;DHT22;44730;53.158;6.398;2022-12-07T02:30:22;3.50;99.90
58951;DHT22;44730;53.158;6.398;2022-12-07T02:32:59;4.70;99.90
58951;DHT22;44730;53.158;6.398;2022-12-07T02:35:46;4.80;99.90
58951;DHT22;44730;53.158;6.398;2022-12-07T02:41:12;3.70;99.90
58951;DHT22;44730;53.158;6.398;2022-12-07T02:43:47;5.30;99.90
58951;DHT22;44730;53.158;6.398;2022-12-07T02:46:32;3.70;99.90
58951;DHT22;44730;53.158;6.398;2022-12-07T02:48:59;3.70;99.90
58951;DHT22;44730;53.158;6.398;2022-12-07T02:51:30;5.00;99.90
58951;DHT22;44730;53.158;6.398;2022-12-07T02:53:56;5.20;99.90
58951;DHT22;44730;53.158;6.398;2022-12-07T03:15:46;3.30;99.90
58951;DHT22;44730;53.158;6.398;2022-12-07T03:18:18;3.30;99.90
58951;DHT22;44730;53.158;6.398;2022-12-07T03:20:46;3.20;99.90
58951;DHT22;44730;53.158;6.398;2022-12-07T03:23:15;4.80;99.90
58951;DHT22;44730;53.158;6.398;2022-12-07T03:25:45;4.10;99.90
58951;DHT22;44730;53.158;6.398;2022-12-07T03:28:14;4.70;99.90
58951;DHT22;44730;53.158;6.398;2022-12-07T03:30:49;4.60;99.90
58951;DHT22;44730;53.158;6.398;2022-12-07T03:33:41;3.10;99.90
58951;DHT22;44730;53.158;6.398;2022-12-07T03:36:14;3.00;99.90
58951;DHT22;44730;53.158;6.398;2022-12-07T03:38:51;3.70;99.90
58951;DHT22;44730;53.158;6.398;2022-12-07T03:41:23;3.00;99.90
58951;DHT22;44730;53.158;6.398;2022-12-07T03:43:50;3.00;99.90
58951;DHT22;44730;53.158;6.398;2022-12-07T03:51:45;2.80;99.90
58951;DHT22;44730;53.158;6.398;2022-12-07T03:54:26;2.70;99.90
58951;DHT22;44730;53.158;6.398;2022-12-07T03:56:55;2.70;99.90
58951;DHT22;44730;53.158;6.398;2022-12-07T03:59:22;2.70;99.90
58951;DHT22;44730;53.158;6.398;2022-12-07T04:01:54;2.70;99.90
58951;DHT22;44730;53.158;6.398;2022-12-07T04:04:21;2.70;99.90
58951;DHT22;44730;53.158;6.398;2022-12-07T04:06:47;3.60;99.90
58951;DHT22;44730;53.158;6.398;2022-12-07T04:09:13;1.80;99.90
58951;DHT22;44730;53.158;6.398;2022-12-07T04:11:40;2.90;99.90
58951;DHT22;44730;53.158;6.398;2022-12-07T04:14:06;4.20;99.90
58951;DHT22;44730;53.158;6.398;2022-12-07T04:16:51;3.30;99.90
58951;DHT22;44730;53.158;6.398;2022-12-07T04:19:19;4.50;99.90
58951;DHT22;44730;53.158;6.398;2022-12-07T04:21:46;3.80;99.90
58951;DHT22;44730;53.158;6.398;2022-12-07T04:24:13;3.00;99.90
58951;DHT22;44730;53.158;6.398;2022-12-07T04:26:40;3.90;99.90
58951;DHT22;44730;53.158;6.398;2022-12-07T04:29:06;3.60;99.90
58951;DHT22;44730;53.158;6.398;2022-12-07T04:31:31;3.20;99.90
58951;DHT22;44730;53.158;6.398;2022-12-07T04:33:57;4.30;99.90
58951;DHT22;44730;53.158;6.398;2022-12-07T04:36:23;4.20;99.90
58951;DHT22;44730;53.158;6.398;2022-12-07T04:38:48;4.80;99.90
58951;DHT22;44730;53.158;6.398;2022-12-07T04:41:14;4.20;99.90
58951;DHT22;44730;53.158;6.398;2022-12-07T04:43:40;3.20;99.90
58951;DHT22;44730;53.158;6.398;2022-12-07T04:46:05;4.70;99.90
58951;DHT22;44730;53.158;6.398;2022-12-07T04:48:31;3.50;99.90
58951;DHT22;44730;53.158;6.398;2022-12-07T04:50:57;3.20;99.90
58951;DHT22;44730;53.158;6.398;2022-12-07T04:53:23;3.10;99.90
58951;DHT22;44730;53.158;6.398;2022-12-07T04:55:48;3.20;99.90
58951;DHT22;44730;53.158;6.398;2022-12-07T04:58:14;3.00;99.90
58951;DHT22;44730;53.158;6.398;2022-12-07T05:00:40;3.00;99.90
58951;DHT22;44730;53.158;6.398;2022-12-07T05:03:06;2.90;99.90
58951;DHT22;44730;53.158;6.398;2022-12-07T05:05:31;2.80;99.90
58951;DHT22;44730;53.158;6.398;2022-12-07T05:07:57;2.70;99.90
58951;DHT22;44730;53.158;6.398;2022-12-07T05:10:23;3.20;99.90
58951;DHT22;44730;53.158;6.398;2022-12-07T05:12:48;3.30;99.90
58951;DHT22;44730;53.158;6.398;2022-12-07T05:15:15;2.50;99.90
58951;DHT22;44730;53.158;6.398;2022-12-07T05:17:41;2.40;99.90
58951;DHT22;44730;53.158;6.398;2022-12-07T05:20:07;2.80;99.90
58951;DHT22;44730;53.158;6.398;2022-12-07T05:22:33;2.20;99.90
58951;DHT22;44730;53.158;6.398;2022-12-07T05:24:59;3.40;99.90
58951;DHT22;44730;53.158;6.398;2022-12-07T05:27:25;2.00;99.90
58951;DHT22;44730;53.158;6.398;2022-12-07T05:29:51;3.50;99.90
58951;DHT22;44730;53.158;6.398;2022-12-07T05:32:17;2.00;99.90
58951;DHT22;44730;53.158;6.398;2022-12-07T05:34:43;3.30;99.90
58951;DHT22;44730;53.158;6.398;2022-12-07T05:37:09;3.10;99.90
58951;DHT22;44730;53.158;6.398;2022-12-07T05:39:35;2.10;99.90
58951;DHT22;44730;53.158;6.398;2022-12-07T05:42:00;2.20;99.90
58951;DHT22;44730;53.158;6.398;2022-12-07T05:44:44;2.90;99.90
58951;DHT22;44730;53.158;6.398;2022-12-07T05:47:10;2.10;99.90
58951;DHT22;44730;53.158;6.398;2022-12-07T05:49:36;3.10;99.90
58951;DHT22;44730;53.158;6.398;2022-12-07T05:52:02;2.80;99.90
58951;DHT22;44730;53.158;6.398;2022-12-07T05:54:28;2.10;99.90
58951;DHT22;44730;53.158;6.398;2022-12-07T05:56:54;2.90;99.90
58951;DHT22;44730;53.158;6.398;2022-12-07T05:59:20;2.90;99.90
58951;DHT22;44730;53.158;6.398;2022-12-07T06:01:57;3.60;99.90
58951;DHT22;44730;53.158;6.398;2022-12-07T06:04:24;4.00;99.90
58951;DHT22;44730;53.158;6.398;2022-12-07T06:06:51;3.50;99.90
58951;DHT22;44730;53.158;6.398;2022-12-07T06:09:17;4.00;99.90
58951;DHT22;44730;53.158;6.398;2022-12-07T06:11:44;4.10;99.90
58951;DHT22;44730;53.158;6.398;2022-12-07T06:14:29;3.30;99.90
58951;DHT22;44730;53.158;6.398;2022-12-07T06:16:54;2.70;99.90
58951;DHT22;44730;53.158;6.398;2022-12-07T06:19:20;2.40;99.90
58951;DHT22;44730;53.158;6.398;2022-12-07T06:21:46;3.10;99.90
58951;DHT22;44730;53.158;6.398;2022-12-07T06:24:13;4.10;99.90
58951;DHT22;44730;53.158;6.398;2022-12-07T06:26:40;3.10;99.90
58951;DHT22;44730;53.158;6.398;2022-12-07T06:29:06;2.80;99.90
58951;DHT22;44730;53.158;6.398;2022-12-07T06:31:31;1.70;99.90
58951;DHT22;44730;53.158;6.398;2022-12-07T06:34:02;2.80;99.90
58951;DHT22;44730;53.158;6.398;2022-12-07T06:36:28;2.80;99.90
58951;DHT22;44730;53.158;6.398;2022-12-07T06:38:54;3.00;99.90
58951;DHT22;44730;53.158;6.398;2022-12-07T06:41:20;4.20;99.90
58951;DHT22;44730;53.158;6.398;2022-12-07T06:43:46;2.70;99.90
58951;DHT22;44730;53.158;6.398;2022-12-07T06:46:12;3.80;99.90
58951;DHT22;44730;53.158;6.398;2022-12-07T06:48:38;4.10;99.90
58951;DHT22;44730;53.158;6.398;2022-12-07T06:51:03;4.30;99.90
58951;DHT22;44730;53.158;6.398;2022-12-07T06:53:29;2.40;99.90
58951;DHT22;44730;53.158;6.398;2022-12-07T06:55:55;3.50;99.90
58951;DHT22;44730;53.158;6.398;2022-12-07T06:58:20;2.70;99.90
58951;DHT22;44730;53.158;6.398;2022-12-07T07:00:48;2.10;99.90
58951;DHT22;44730;53.158;6.398;2022-12-07T07:03:14;2.10;99.90
58951;DHT22;44730;53.158;6.398;2022-12-07T07:05:39;2.10;99.90
58951;DHT22;44730;53.158;6.398;2022-12-07T07:08:05;2.10;99.90
58951;DHT22;44730;53.158;6.398;2022-12-07T07:10:31;3.70;99.90
58951;DHT22;44730;53.158;6.398;2022-12-07T07:12:57;3.20;99.90
58951;DHT22;44730;53.158;6.398;2022-12-07T07:15:22;3.60;99.90
58951;DHT22;44730;53.158;6.398;2022-12-07T07:17:48;1.90;99.90
58951;DHT22;44730;53.158;6.398;2022-12-07T07:20:14;3.00;99.90
58951;DHT22;44730;53.158;6.398;2022-12-07T07:22:39;1.90;99.90
58951;DHT22;44730;53.158;6.398;2022-12-07T07:25:05;2.00;99.90
58951;DHT22;44730;53.158;6.398;2022-12-07T07:27:31;1.90;99.90
58951;DHT22;44730;53.158;6.398;2022-12-07T07:29:57;1.80;99.90
58951;DHT22;44730;53.158;6.398;2022-12-07T07:32:22;2.70;99.90
58951;DHT22;44730;53.158;6.398;2022-12-07T07:34:48;2.30;99.90
58951;DHT22;44730;53.158;6.398;2022-12-07T07:37:14;1.70;99.90
58951;DHT22;44730;53.158;6.398;2022-12-07T07:39:40;1.70;99.90
58951;DHT22;44730;53.158;6.398;2022-12-07T07:42:06;3.00;99.90
58951;DHT22;44730;53.158;6.398;2022-12-07T07:44:36;1.70;99.90
58951;DHT22;44730;53.158;6.398;2022-12-07T07:47:03;3.30;99.90
58951;DHT22;44730;53.158;6.398;2022-12-07T07:49:29;3.10;99.90
58951;DHT22;44730;53.158;6.398;2022-12-07T07:51:54;1.50;99.90
58951;DHT22;44730;53.158;6.398;2022-12-07T07:54:20;2.60;99.90
58951;DHT22;44730;53.158;6.398;2022-12-07T07:56:46;3.30;99.90
58951;DHT22;44730;53.158;6.398;2022-12-07T07:59:11;1.90;99.90
58951;DHT22;44730;53.158;6.398;2022-12-07T08:01:37;1.50;99.90
58951;DHT22;44730;53.158;6.398;2022-12-07T08:04:03;2.50;99.90
58951;DHT22;44730;53.158;6.398;2022-12-07T08:06:28;1.70;99.90
58951;DHT22;44730;53.158;6.398;2022-12-07T08:08:54;1.90;99.90
58951;DHT22;44730;53.158;6.398;2022-12-07T08:11:20;3.80;99.90
58951;DHT22;44730;53.158;6.398;2022-12-07T08:13:46;2.00;99.90
58951;DHT22;44730;53.158;6.398;2022-12-07T08:16:13;2.10;99.90
58951;DHT22;44730;53.158;6.398;2022-12-07T08:18:41;2.70;99.90
58951;DHT22;44730;53.158;6.398;2022-12-07T08:21:11;2.20;99.90
58951;DHT22;44730;53.158;6.398;2022-12-07T08:23:36;3.70;99.90
58951;DHT22;44730;53.158;6.398;2022-12-07T08:26:04;2.90;99.90
58951;DHT22;44730;53.158;6.398;2022-12-07T08:28:30;2.10;99.90
58951;DHT22;44730;53.158;6.398;2022-12-07T08:31:16;2.10;99.90
58951;DHT22;44730;53.158;6.398;2022-12-07T08:33:45;3.00;99.90
58951;DHT22;44730;53.158;6.398;2022-12-07T08:36:12;3.60;99.90
58951;DHT22;44730;53.158;6.398;2022-12-07T08:38:39;2.70;99.90
58951;DHT22;44730;53.158;6.398;2022-12-07T08:41:06;4.00;99.90
58951;DHT22;44730;53.158;6.398;2022-12-07T08:43:32;2.10;99.90
58951;DHT22;44730;53.158;6.398;2022-12-07T08:48:26;2.30;99.90
58951;DHT22;44730;53.158;6.398;2022-12-07T08:50:52;2.40;99.90
58951;DHT22;44730;53.158;6.398;2022-12-07T08:53:18;2.60;99.90
58951;DHT22;44730;53.158;6.398;2022-12-07T08:55:45;3.10;99.90
58951;DHT22;44730;53.158;6.398;2022-12-07T08:58:11;3.60;99.90
58951;DHT22;44730;53.158;6.398;2022-12-07T09:00:37;3.40;99.90
58951;DHT22;44730;53.158;6.398;2022-12-07T09:03:02;4.60;99.90
58951;DHT22;44730;53.158;6.398;2022-12-07T09:05:28;4.30;99.90
58951;DHT22;44730;53.158;6.398;2022-12-07T09:07:57;5.30;99.90
58951;DHT22;44730;53.158;6.398;2022-12-07T09:10:25;5.90;99.90
58951;DHT22;44730;53.158;6.398;2022-12-07T09:12:51;5.90;99.90
58951;DHT22;44730;53.158;6.398;2022-12-07T09:15:17;5.70;99.90
58951;DHT22;44730;53.158;6.398;2022-12-07T09:17:42;5.60;99.90
58951;DHT22;44730;53.158;6.398;2022-12-07T09:20:09;5.40;99.90
58951;DHT22;44730;53.158;6.398;2022-12-07T09:22:35;5.20;99.90
58951;DHT22;44730;53.158;6.398;2022-12-07T09:25:01;6.20;99.90
58951;DHT22;44730;53.158;6.398;2022-12-07T09:27:27;4.90;99.90
58951;DHT22;44730;53.158;6.398;2022-12-07T09:29:53;5.90;99.90
58951;DHT22;44730;53.158;6.398;2022-12-07T09:32:18;4.80;99.90
58951;DHT22;44730;53.158;6.398;2022-12-07T09:34:44;6.00;99.90
58951;DHT22;44730;53.158;6.398;2022-12-07T09:37:10;4.80;99.90
58951;DHT22;44730;53.158;6.398;2022-12-07T09:39:39;4.40;99.90
58951;DHT22;44730;53.158;6.398;2022-12-07T09:42:06;4.40;99.90
58951;DHT22;44730;53.158;6.398;2022-12-07T09:44:33;4.30;99.90
58951;DHT22;44730;53.158;6.398;2022-12-07T09:47:00;4.20;99.90
58951;DHT22;44730;53.158;6.398;2022-12-07T09:49:30;4.10;99.90
58951;DHT22;44730;53.158;6.398;2022-12-07T09:52:26;4.10;99.90
58951;DHT22;44730;53.158;6.398;2022-12-07T09:54:53;4.10;99.90
58951;DHT22;44730;53.158;6.398;2022-12-07T09:57:28;4.60;99.90
58951;DHT22;44730;53.158;6.398;2022-12-07T10:00:01;4.10;99.90
58951;DHT22;44730;53.158;6.398;2022-12-07T10:02:38;4.10;99.90
58951;DHT22;44730;53.158;6.398;2022-12-07T10:05:13;4.10;99.90
58951;DHT22;44730;53.158;6.398;2022-12-07T10:07:39;4.20;99.90
58951;DHT22;44730;53.158;6.398;2022-12-07T10:10:27;4.30;99.90
58951;DHT22;44730;53.158;6.398;2022-12-07T10:13:00;5.80;99.90
58951;DHT22;44730;53.158;6.398;2022-12-07T10:15:48;4.50;99.90
58951;DHT22;44730;53.158;6.398;2022-12-07T10:18:36;5.20;99.90
58951;DHT22;44730;53.158;6.398;2022-12-07T10:21:15;4.80;99.90
58951;DHT22;44730;53.158;6.398;2022-12-07T10:23:59;5.00;99.90
58951;DHT22;44730;53.158;6.398;2022-12-07T10:26:38;5.00;99.90
58951;DHT22;44730;53.158;6.398;2022-12-07T10:29:28;6.10;99.90
58951;DHT22;44730;53.158;6.398;2022-12-07T10:32:23;6.00;99.90
58951;DHT22;44730;53.158;6.398;2022-12-07T10:34:54;5.40;99.90
58951;DHT22;44730;53.158;6.398;2022-12-07T10:37:40;5.50;99.90
58951;DHT22;44730;53.158;6.398;2022-12-07T10:40:25;5.60;99.90
58951;DHT22;44730;53.158;6.398;2022-12-07T10:43:20;5.60;99.90
58951;DHT22;44730;53.158;6.398;2022-12-07T10:46:01;6.90;99.90
58951;DHT22;44730;53.158;6.398;2022-12-07T10:51:46;6.00;99.90
58951;DHT22;44730;53.158;6.398;2022-12-07T11:05:29;5.90;99.90
58951;DHT22;44730;53.158;6.398;2022-12-07T11:08:17;5.90;99.90
58951;DHT22;44730;53.158;6.398;2022-12-07T11:14:24;5.90;99.90
58951;DHT22;44730;53.158;6.398;2022-12-07T11:22:19;6.00;99.90
58951;DHT22;44730;53.158;6.398;2022-12-07T11:25:08;6.10;99.90
58951;DHT22;44730;53.158;6.398;2022-12-07T11:30:19;6.40;99.90
58951;DHT22;44730;53.158;6.398;2022-12-07T11:33:12;6.20;99.90
58951;DHT22;44730;53.158;6.398;2022-12-07T11:38:52;6.30;99.90
58951;DHT22;44730;53.158;6.398;2022-12-07T11:41:23;6.60;99.90
58951;DHT22;44730;53.158;6.398;2022-12-07T11:44:07;6.50;99.90
58951;DHT22;44730;53.158;6.398;2022-12-07T11:52:51;6.80;99.90
58951;DHT22;44730;53.158;6.398;2022-12-07T12:01:18;7.40;99.90
58951;DHT22;44730;53.158;6.398;2022-12-07T12:03:56;7.10;99.90
58951;DHT22;44730;53.158;6.398;2022-12-07T12:06:23;7.20;99.90
58951;DHT22;44730;53.158;6.398;2022-12-07T12:11:59;7.30;99.90
58951;DHT22;44730;53.158;6.398;2022-12-07T12:20:24;7.10;99.90
58951;DHT22;44730;53.158;6.398;2022-12-07T12:23:14;7.00;99.90
58951;DHT22;44730;53.158;6.398;2022-12-07T12:25:56;6.90;99.90
58951;DHT22;44730;53.158;6.398;2022-12-07T12:28:32;6.70;99.90
58951;DHT22;44730;53.158;6.398;2022-12-07T12:33:37;6.50;99.90
58951;DHT22;44730;53.158;6.398;2022-12-07T12:46:59;6.60;99.90
58951;DHT22;44730;53.158;6.398;2022-12-07T12:49:41;5.60;99.90
58951;DHT22;44730;53.158;6.398;2022-12-07T12:55:12;5.40;99.90
58951;DHT22;44730;53.158;6.398;2022-12-07T12:57:38;5.70;99.90
58951;DHT22;44730;53.158;6.398;2022-12-07T13:00:20;5.80;99.90
58951;DHT22;44730;53.158;6.398;2022-12-07T13:02:54;5.30;99.90
58951;DHT22;44730;53.158;6.398;2022-12-07T13:05:29;6.00;99.90
58951;DHT22;44730;53.158;6.398;2022-12-07T13:08:02;5.30;99.90
58951;DHT22;44730;53.158;6.398;2022-12-07T13:10:37;5.30;99.90
58951;DHT22;44730;53.158;6.398;2022-12-07T13:15:55;5.30;99.90
58951;DHT22;44730;53.158;6.398;2022-12-07T13:18:39;5.30;99.90
58951;DHT22;44730;53.158;6.398;2022-12-07T13:29:11;5.20;99.90
58951;DHT22;44730;53.158;6.398;2022-12-07T13:37:08;5.20;99.90
58951;DHT22;44730;53.158;6.398;2022-12-07T13:39:45;5.10;99.90
58951;DHT22;44730;53.158;6.398;2022-12-07T13:42:31;5.10;99.90
58951;DHT22;44730;53.158;6.398;2022-12-07T13:44:59;5.00;99.90
58951;DHT22;44730;53.158;6.398;2022-12-07T13:47:41;5.00;99.90
58951;DHT22;44730;53.158;6.398;2022-12-07T13:50:28;4.90;99.90
58951;DHT22;44730;53.158;6.398;2022-12-07T13:52:56;4.80;99.90
58951;DHT22;44730;53.158;6.398;2022-12-07T13:55:23;6.20;99.90
58951;DHT22;44730;53.158;6.398;2022-12-07T13:57:51;4.90;99.90
58951;DHT22;44730;53.158;6.398;2022-12-07T14:00:24;4.60;99.90
58951;DHT22;44730;53.158;6.398;2022-12-07T14:03:02;4.50;99.90
58951;DHT22;44730;53.158;6.398;2022-12-07T14:05:30;4.50;99.90
58951;DHT22;44730;53.158;6.398;2022-12-07T14:08:04;4.40;99.90
58951;DHT22;44730;53.158;6.398;2022-12-07T14:10:34;4.30;99.90
58951;DHT22;44730;53.158;6.398;2022-12-07T14:13:03;5.70;99.90
58951;DHT22;44730;53.158;6.398;2022-12-07T14:15:31;4.20;99.90
58951;DHT22;44730;53.158;6.398;2022-12-07T14:17:58;4.20;99.90
58951;DHT22;44730;53.158;6.398;2022-12-07T14:20:38;5.20;99.90
58951;DHT22;44730;53.158;6.398;2022-12-07T14:23:05;4.20;99.90
58951;DHT22;44730;53.158;6.398;2022-12-07T14:25:48;4.20;99.90
58951;DHT22;44730;53.158;6.398;2022-12-07T14:28:34;4.30;99.90
58951;DHT22;44730;53.158;6.398;2022-12-07T14:31:01;4.30;99.90
58951;DHT22;44730;53.158;6.398;2022-12-07T14:33:28;4.30;99.90
58951;DHT22;44730;53.158;6.398;2022-12-07T14:35:54;4.30;99.90
58951;DHT22;44730;53.158;6.398;2022-12-07T14:38:24;5.00;99.90
58951;DHT22;44730;53.158;6.398;2022-12-07T14:40:54;4.20;99.90
58951;DHT22;44730;53.158;6.398;2022-12-07T14:43:40;4.20;99.90
58951;DHT22;44730;53.158;6.398;2022-12-07T14:46:06;4.20;99.90
58951;DHT22;44730;53.158;6.398;2022-12-07T14:48:31;4.10;99.90
58951;DHT22;44730;53.158;6.398;2022-12-07T14:50:57;4.00;99.90
58951;DHT22;44730;53.158;6.398;2022-12-07T14:53:33;4.00;99.90
58951;DHT22;44730;53.158;6.398;2022-12-07T14:56:01;4.00;99.90
58951;DHT22;44730;53.158;6.398;2022-12-07T14:58:26;3.90;99.90
58951;DHT22;44730;53.158;6.398;2022-12-07T15:00:52;5.10;99.90
58951;DHT22;44730;53.158;6.398;2022-12-07T15:03:18;3.80;99.90
58951;DHT22;44730;53.158;6.398;2022-12-07T15:05:44;4.70;99.90
58951;DHT22;44730;53.158;6.398;2022-12-07T15:08:12;3.80;99.90
58951;DHT22;44730;53.158;6.398;2022-12-07T15:10:37;3.70;99.90
58951;DHT22;44730;53.158;6.398;2022-12-07T15:13:04;3.60;99.90
58951;DHT22;44730;53.158;6.398;2022-12-07T15:15:50;3.60;99.90
58951;DHT22;44730;53.158;6.398;2022-12-07T15:18:17;3.50;99.90
58951;DHT22;44730;53.158;6.398;2022-12-07T15:20:43;4.60;99.90
58951;DHT22;44730;53.158;6.398;2022-12-07T15:23:10;3.90;99.90
58951;DHT22;44730;53.158;6.398;2022-12-07T15:25:36;3.30;99.90
58951;DHT22;44730;53.158;6.398;2022-12-07T15:28:01;3.20;99.90
58951;DHT22;44730;53.158;6.398;2022-12-07T15:30:27;4.50;99.90
58951;DHT22;44730;53.158;6.398;2022-12-07T15:32:53;3.10;99.90
58951;DHT22;44730;53.158;6.398;2022-12-07T15:35:20;3.40;99.90
58951;DHT22;44730;53.158;6.398;2022-12-07T15:37:46;3.10;99.90
58951;DHT22;44730;53.158;6.398;2022-12-07T15:40:12;3.60;99.90
58951;DHT22;44730;53.158;6.398;2022-12-07T15:42:38;3.00;99.90
58951;DHT22;44730;53.158;6.398;2022-12-07T15:45:05;3.00;99.90
58951;DHT22;44730;53.158;6.398;2022-12-07T15:47:33;3.00;99.90
58951;DHT22;44730;53.158;6.398;2022-12-07T15:50:00;3.90;99.90
58951;DHT22;44730;53.158;6.398;2022-12-07T15:52:26;3.80;99.90
58951;DHT22;44730;53.158;6.398;2022-12-07T15:54:51;3.90;99.90
58951;DHT22;44730;53.158;6.398;2022-12-07T15:57:17;3.50;99.90
58951;DHT22;44730;53.158;6.398;2022-12-07T15:59:43;3.10;99.90
58951;DHT22;44730;53.158;6.398;2022-12-07T16:02:10;3.00;99.90
58951;DHT22;44730;53.158;6.398;2022-12-07T16:04:36;3.10;99.90
58951;DHT22;44730;53.158;6.398;2022-12-07T16:07:02;4.10;99.90
58951;DHT22;44730;53.158;6.398;2022-12-07T16:09:27;3.10;99.90
58951;DHT22;44730;53.158;6.398;2022-12-07T16:11:53;3.20;99.90
58951;DHT22;44730;53.158;6.398;2022-12-07T16:14:20;3.20;99.90
58951;DHT22;44730;53.158;6.398;2022-12-07T16:16:46;3.70;99.90
58951;DHT22;44730;53.158;6.398;2022-12-07T16:19:13;3.20;99.90
58951;DHT22;44730;53.158;6.398;2022-12-07T16:21:39;3.30;99.90
58951;DHT22;44730;53.158;6.398;2022-12-07T16:24:05;3.20;99.90
58951;DHT22;44730;53.158;6.398;2022-12-07T16:26:32;3.30;99.90
58951;DHT22;44730;53.158;6.398;2022-12-07T16:28:57;4.00;99.90
58951;DHT22;44730;53.158;6.398;2022-12-07T16:31:25;3.40;99.90
58951;DHT22;44730;53.158;6.398;2022-12-07T16:33:57;4.00;99.90
58951;DHT22;44730;53.158;6.398;2022-12-07T16:36:24;3.30;99.90
58951;DHT22;44730;53.158;6.398;2022-12-07T16:38:51;3.40;99.90
58951;DHT22;44730;53.158;6.398;2022-12-07T16:41:17;4.40;99.90
58951;DHT22;44730;53.158;6.398;2022-12-07T16:43:43;3.60;99.90
58951;DHT22;44730;53.158;6.398;2022-12-07T16:46:09;4.80;99.90
58951;DHT22;44730;53.158;6.398;2022-12-07T16:48:39;3.30;99.90
58951;DHT22;44730;53.158;6.398;2022-12-07T16:51:07;3.40;99.90
58951;DHT22;44730;53.158;6.398;2022-12-07T16:53:34;3.30;99.90
58951;DHT22;44730;53.158;6.398;2022-12-07T16:56:00;3.60;99.90
58951;DHT22;44730;53.158;6.398;2022-12-07T16:58:26;3.60;99.90
58951;DHT22;44730;53.158;6.398;2022-12-07T17:00:52;3.60;99.90
58951;DHT22;44730;53.158;6.398;2022-12-07T17:03:18;3.70;99.90
58951;DHT22;44730;53.158;6.398;2022-12-07T17:05:44;4.20;99.90
58951;DHT22;44730;53.158;6.398;2022-12-07T17:08:11;3.30;99.90
58951;DHT22;44730;53.158;6.398;2022-12-07T17:10:39;3.30;99.90
58951;DHT22;44730;53.158;6.398;2022-12-07T17:13:06;3.20;99.90
58951;DHT22;44730;53.158;6.398;2022-12-07T17:15:58;3.20;99.90
58951;DHT22;44730;53.158;6.398;2022-12-07T17:18:26;3.20;99.90
58951;DHT22;44730;53.158;6.398;2022-12-07T17:20:52;4.10;99.90
58951;DHT22;44730;53.158;6.398;2022-12-07T17:23:18;3.20;99.90
58951;DHT22;44730;53.158;6.398;2022-12-07T17:25:44;3.20;99.90
58951;DHT22;44730;53.158;6.398;2022-12-07T17:28:10;3.60;99.90
58951;DHT22;44730;53.158;6.398;2022-12-07T17:30:37;3.20;99.90
58951;DHT22;44730;53.158;6.398;2022-12-07T17:33:03;3.60;99.90
58951;DHT22;44730;53.158;6.398;2022-12-07T17:35:29;3.30;99.90
58951;DHT22;44730;53.158;6.398;2022-12-07T17:37:54;3.40;99.90
58951;DHT22;44730;53.158;6.398;2022-12-07T17:40:21;4.10;99.90
58951;DHT22;44730;53.158;6.398;2022-12-07T17:42:47;4.10;99.90
58951;DHT22;44730;53.158;6.398;2022-12-07T17:45:15;3.30;99.90
58951;DHT22;44730;53.158;6.398;2022-12-07T17:47:41;3.30;99.90
58951;DHT22;44730;53.158;6.398;2022-12-07T17:50:08;3.30;99.90
58951;DHT22;44730;53.158;6.398;2022-12-07T17:52:37;3.20;99.90
58951;DHT22;44730;53.158;6.398;2022-12-07T17:55:22;4.50;99.90
58951;DHT22;44730;53.158;6.398;2022-12-07T17:57:48;3.80;99.90
58951;DHT22;44730;53.158;6.398;2022-12-07T18:00:14;3.20;99.90